sensor_id;sensor_type;location;lat;lon;timestamp;temperature;humidity
63051;SHT30;49136;47.416;19.402;2024-03-25T00:01:20;0.29;99.99
63051;SHT30;49136;47.416;19.402;2024-03-25T00:03:45;0.26;99.99
63051;SHT30;49136;47.416;19.402;2024-03-25T00:06:11;0.21;99.99
63051;SHT30;49136;47.416;19.402;2024-03-25T00:08:36;0.18;99.99
63051;SHT30;49136;47.416;19.402;2024-03-25T00:11:02;0.18;99.99
63051;SHT30;49136;47.416;19.402;2024-03-25T00:13:27;0.13;99.99
63051;SHT30;49136;47.416;19.402;2024-03-25T00:15:53;0.13;99.99
63051;SHT30;49136;47.416;19.402;2024-03-25T00:18:18;0.15;99.99
63051;SHT30;49136;47.416;19.402;2024-03-25T00:20:43;0.08;99.99
63051;SHT30;49136;47.416;19.402;2024-03-25T00:23:09;0.10;99.99
63051;SHT30;49136;47.416;19.402;2024-03-25T00:25:34;0.07;99.99
63051;SHT30;49136;47.416;19.402;2024-03-25T00:28:00;0.06;99.99
63051;SHT30;49136;47.416;19.402;2024-03-25T00:30:25;-0.01;99.99
63051;SHT30;49136;47.416;19.402;2024-03-25T00:32:50;0.15;99.99
63051;SHT30;49136;47.416;19.402;2024-03-25T00:35:16;0.13;99.99
63051;SHT30;49136;47.416;19.402;2024-03-25T00:37:43;0.13;99.99
63051;SHT30;49136;47.416;19.402;2024-03-25T00:40:08;0.07;99.99
63051;SHT30;49136;47.416;19.402;2024-03-25T00:42:34;0.06;99.99
63051;SHT30;49136;47.416;19.402;2024-03-25T00:44:59;0.22;99.99
63051;SHT30;49136;47.416;19.402;2024-03-25T00:47:25;0.17;99.99
63051;SHT30;49136;47.416;19.402;2024-03-25T00:49:51;0.48;99.99
63051;SHT30;49136;47.416;19.402;2024-03-25T00:52:16;0.55;99.99
63051;SHT30;49136;47.416;19.402;2024-03-25T00:54:42;0.62;99.99
63051;SHT30;49136;47.416;19.402;2024-03-25T00:57:07;0.52;99.99
63051;SHT30;49136;47.416;19.402;2024-03-25T00:59:33;0.35;99.99
63051;SHT30;49136;47.416;19.402;2024-03-25T01:01:58;0.24;99.99
63051;SHT30;49136;47.416;19.402;2024-03-25T01:04:23;0.15;99.99
63051;SHT30;49136;47.416;19.402;2024-03-25T01:06:49;0.11;99.99
63051;SHT30;49136;47.416;19.402;2024-03-25T01:09:14;0.03;99.99
63051;SHT30;49136;47.416;19.402;2024-03-25T01:11:41;0.00;99.99
63051;SHT30;49136;47.416;19.402;2024-03-25T01:14:06;0.03;99.99
63051;SHT30;49136;47.416;19.402;2024-03-25T01:16:32;-0.04;99.99
63051;SHT30;49136;47.416;19.402;2024-03-25T01:18:58;0.01;99.99
63051;SHT30;49136;47.416;19.402;2024-03-25T01:21:24;0.01;99.99
63051;SHT30;49136;47.416;19.402;2024-03-25T01:23:49;0.00;99.99
63051;SHT30;49136;47.416;19.402;2024-03-25T01:26:15;-0.01;99.99
63051;SHT30;49136;47.416;19.402;2024-03-25T01:28:40;-0.01;99.99
63051;SHT30;49136;47.416;19.402;2024-03-25T01:31:06;0.07;99.99
63051;SHT30;49136;47.416;19.402;2024-03-25T01:33:31;0.14;99.99
63051;SHT30;49136;47.416;19.402;2024-03-25T01:35:57;0.13;99.99
63051;SHT30;49136;47.416;19.402;2024-03-25T01:38:22;0.13;99.99
63051;SHT30;49136;47.416;19.402;2024-03-25T01:40:47;0.19;99.99
63051;SHT30;49136;47.416;19.402;2024-03-25T01:43:13;0.17;99.99
63051;SHT30;49136;47.416;19.402;2024-03-25T01:45:38;0.15;99.99
63051;SHT30;49136;47.416;19.402;2024-03-25T01:48:08;0.19;99.99
63051;SHT30;49136;47.416;19.402;2024-03-25T01:50:53;0.15;99.99
63051;SHT30;49136;47.416;19.402;2024-03-25T01:53:19;0.21;99.99
63051;SHT30;49136;47.416;19.402;2024-03-25T01:55:45;0.25;99.99
63051;SHT30;49136;47.416;19.402;2024-03-25T01:58:11;0.28;99.99
63051;SHT30;49136;47.416;19.402;2024-03-25T02:00:38;0.24;99.99
63051;SHT30;49136;47.416;19.402;2024-03-25T02:03:04;0.26;99.99
63051;SHT30;49136;47.416;19.402;2024-03-25T02:05:30;0.24;99.99
63051;SHT30;49136;47.416;19.402;2024-03-25T02:07:56;0.26;99.99
63051;SHT30;49136;47.416;19.402;2024-03-25T02:10:22;0.26;99.99
63051;SHT30;49136;47.416;19.402;2024-03-25T02:12:48;0.28;99.99
63051;SHT30;49136;47.416;19.402;2024-03-25T02:15:14;0.24;99.99
63051;SHT30;49136;47.416;19.402;2024-03-25T02:17:41;0.19;99.99
63051;SHT30;49136;47.416;19.402;2024-03-25T02:20:07;0.15;99.99
63051;SHT30;49136;47.416;19.402;2024-03-25T02:22:36;0.11;99.99
63051;SHT30;49136;47.416;19.402;2024-03-25T02:25:05;0.06;99.99
63051;SHT30;49136;47.416;19.402;2024-03-25T02:27:31;0.06;99.99
63051;SHT30;49136;47.416;19.402;2024-03-25T02:30:08;0.07;99.99
63051;SHT30;49136;47.416;19.402;2024-03-25T02:32:34;0.14;99.99
63051;SHT30;49136;47.416;19.402;2024-03-25T02:35:01;0.17;99.99
63051;SHT30;49136;47.416;19.402;2024-03-25T02:37:27;0.18;99.99
63051;SHT30;49136;47.416;19.402;2024-03-25T02:39:54;0.14;99.99
63051;SHT30;49136;47.416;19.402;2024-03-25T02:42:20;0.03;99.99
63051;SHT30;49136;47.416;19.402;2024-03-25T02:44:46;0.11;99.99
63051;SHT30;49136;47.416;19.402;2024-03-25T02:47:12;0.32;99.99
63051;SHT30;49136;47.416;19.402;2024-03-25T02:49:37;0.19;99.99
63051;SHT30;49136;47.416;19.402;2024-03-25T02:52:03;0.11;99.99
63051;SHT30;49136;47.416;19.402;2024-03-25T02:54:28;0.11;99.99
63051;SHT30;49136;47.416;19.402;2024-03-25T02:56:54;0.00;99.99
63051;SHT30;49136;47.416;19.402;2024-03-25T02:59:19;-0.03;99.99
63051;SHT30;49136;47.416;19.402;2024-03-25T03:01:44;0.13;99.99
63051;SHT30;49136;47.416;19.402;2024-03-25T03:04:10;0.22;99.99
63051;SHT30;49136;47.416;19.402;2024-03-25T03:06:35;0.17;99.99
63051;SHT30;49136;47.416;19.402;2024-03-25T03:09:00;0.18;99.99
63051;SHT30;49136;47.416;19.402;2024-03-25T03:11:26;0.17;99.99
63051;SHT30;49136;47.416;19.402;2024-03-25T03:13:51;0.19;99.99
63051;SHT30;49136;47.416;19.402;2024-03-25T03:16:16;0.14;99.99
63051;SHT30;49136;47.416;19.402;2024-03-25T03:18:42;0.08;99.99
63051;SHT30;49136;47.416;19.402;2024-03-25T03:21:07;0.06;99.99
63051;SHT30;49136;47.416;19.402;2024-03-25T03:23:33;0.10;99.99
63051;SHT30;49136;47.416;19.402;2024-03-25T03:25:58;0.06;99.99
63051;SHT30;49136;47.416;19.402;2024-03-25T03:28:25;0.04;99.99
63051;SHT30;49136;47.416;19.402;2024-03-25T03:30:50;-0.01;99.99
63051;SHT30;49136;47.416;19.402;2024-03-25T03:33:16;0.01;99.99
63051;SHT30;49136;47.416;19.402;2024-03-25T03:35:42;0.03;99.99
63051;SHT30;49136;47.416;19.402;2024-03-25T03:38:07;0.03;99.99
63051;SHT30;49136;47.416;19.402;2024-03-25T03:40:33;0.03;99.99
63051;SHT30;49136;47.416;19.402;2024-03-25T03:42:58;0.07;99.99
63051;SHT30;49136;47.416;19.402;2024-03-25T03:45:24;0.15;99.99
63051;SHT30;49136;47.416;19.402;2024-03-25T03:47:50;0.11;99.99
63051;SHT30;49136;47.416;19.402;2024-03-25T03:50:16;0.06;99.99
63051;SHT30;49136;47.416;19.402;2024-03-25T03:52:41;0.00;99.99
63051;SHT30;49136;47.416;19.402;2024-03-25T03:55:07;0.08;99.99
63051;SHT30;49136;47.416;19.402;2024-03-25T03:57:32;0.24;99.99
63051;SHT30;49136;47.416;19.402;2024-03-25T03:59:58;0.45;99.99
63051;SHT30;49136;47.416;19.402;2024-03-25T04:02:23;0.53;99.99
63051;SHT30;49136;47.416;19.402;2024-03-25T04:04:50;0.65;99.99
63051;SHT30;49136;47.416;19.402;2024-03-25T04:07:16;0.81;99.99
63051;SHT30;49136;47.416;19.402;2024-03-25T04:09:41;0.95;99.99
63051;SHT30;49136;47.416;19.402;2024-03-25T04:12:07;1.01;99.99
63051;SHT30;49136;47.416;19.402;2024-03-25T04:14:32;1.09;99.99
63051;SHT30;49136;47.416;19.402;2024-03-25T04:16:58;1.12;99.99
63051;SHT30;49136;47.416;19.402;2024-03-25T04:19:24;1.15;99.99
63051;SHT30;49136;47.416;19.402;2024-03-25T04:21:50;1.21;99.99
63051;SHT30;49136;47.416;19.402;2024-03-25T04:24:15;1.32;99.99
63051;SHT30;49136;47.416;19.402;2024-03-25T04:26:40;1.35;99.99
63051;SHT30;49136;47.416;19.402;2024-03-25T04:29:06;1.38;99.99
63051;SHT30;49136;47.416;19.402;2024-03-25T04:31:31;1.38;99.99
63051;SHT30;49136;47.416;19.402;2024-03-25T04:33:56;1.40;99.99
63051;SHT30;49136;47.416;19.402;2024-03-25T04:36:22;1.44;99.99
63051;SHT30;49136;47.416;19.402;2024-03-25T04:38:48;1.47;99.99
63051;SHT30;49136;47.416;19.402;2024-03-25T04:41:13;1.54;99.99
63051;SHT30;49136;47.416;19.402;2024-03-25T04:43:38;1.59;99.99
63051;SHT30;49136;47.416;19.402;2024-03-25T04:46:04;1.60;99.99
63051;SHT30;49136;47.416;19.402;2024-03-25T04:48:30;1.63;99.99
63051;SHT30;49136;47.416;19.402;2024-03-25T04:50:55;1.61;99.99
63051;SHT30;49136;47.416;19.402;2024-03-25T04:53:21;1.68;99.99
63051;SHT30;49136;47.416;19.402;2024-03-25T04:55:46;1.71;99.99
63051;SHT30;49136;47.416;19.402;2024-03-25T04:58:11;1.77;99.99
63051;SHT30;49136;47.416;19.402;2024-03-25T05:00:37;1.85;99.99
63051;SHT30;49136;47.416;19.402;2024-03-25T05:03:02;1.98;99.99
63051;SHT30;49136;47.416;19.402;2024-03-25T05:05:29;2.16;99.99
63051;SHT30;49136;47.416;19.402;2024-03-25T05:07:54;2.26;99.99
63051;SHT30;49136;47.416;19.402;2024-03-25T05:10:20;2.39;99.99
63051;SHT30;49136;47.416;19.402;2024-03-25T05:12:45;2.55;99.99
63051;SHT30;49136;47.416;19.402;2024-03-25T05:15:12;2.65;99.99
63051;SHT30;49136;47.416;19.402;2024-03-25T05:17:38;2.85;99.99
63051;SHT30;49136;47.416;19.402;2024-03-25T05:20:03;2.99;99.99
63051;SHT30;49136;47.416;19.402;2024-03-25T05:22:30;3.10;99.99
63051;SHT30;49136;47.416;19.402;2024-03-25T05:24:55;3.14;99.99
63051;SHT30;49136;47.416;19.402;2024-03-25T05:27:21;3.16;99.99
63051;SHT30;49136;47.416;19.402;2024-03-25T05:29:46;3.16;99.99
63051;SHT30;49136;47.416;19.402;2024-03-25T05:32:11;3.16;99.99
63051;SHT30;49136;47.416;19.402;2024-03-25T05:34:37;3.12;99.99
63051;SHT30;49136;47.416;19.402;2024-03-25T05:37:02;3.10;99.99
63051;SHT30;49136;47.416;19.402;2024-03-25T05:39:28;3.13;99.99
63051;SHT30;49136;47.416;19.402;2024-03-25T05:41:53;3.17;99.99
63051;SHT30;49136;47.416;19.402;2024-03-25T05:44:18;3.26;99.99
63051;SHT30;49136;47.416;19.402;2024-03-25T05:46:44;3.35;99.99
63051;SHT30;49136;47.416;19.402;2024-03-25T05:49:09;3.41;99.99
63051;SHT30;49136;47.416;19.402;2024-03-25T05:51:35;3.48;99.99
63051;SHT30;49136;47.416;19.402;2024-03-25T05:54:00;3.50;99.99
63051;SHT30;49136;47.416;19.402;2024-03-25T05:56:26;3.58;99.99
63051;SHT30;49136;47.416;19.402;2024-03-25T05:58:59;3.74;99.99
63051;SHT30;49136;47.416;19.402;2024-03-25T06:01:25;3.75;99.99
63051;SHT30;49136;47.416;19.402;2024-03-25T06:03:53;3.82;99.99
63051;SHT30;49136;47.416;19.402;2024-03-25T06:06:19;4.01;99.99
63051;SHT30;49136;47.416;19.402;2024-03-25T06:08:45;4.06;99.99
63051;SHT30;49136;47.416;19.402;2024-03-25T06:11:10;4.22;99.99
63051;SHT30;49136;47.416;19.402;2024-03-25T06:13:35;4.38;99.65
63051;SHT30;49136;47.416;19.402;2024-03-25T06:16:01;4.69;98.71
63051;SHT30;49136;47.416;19.402;2024-03-25T06:18:26;5.04;97.88
63051;SHT30;49136;47.416;19.402;2024-03-25T06:20:52;5.31;97.40
63051;SHT30;49136;47.416;19.402;2024-03-25T06:23:28;5.64;96.83
63051;SHT30;49136;47.416;19.402;2024-03-25T06:25:54;5.94;96.00
63051;SHT30;49136;47.416;19.402;2024-03-25T06:28:21;6.30;95.12
63051;SHT30;49136;47.416;19.402;2024-03-25T06:30:47;6.34;94.59
63051;SHT30;49136;47.416;19.402;2024-03-25T06:33:31;6.33;94.42
63051;SHT30;49136;47.416;19.402;2024-03-25T06:36:16;6.56;93.40
63051;SHT30;49136;47.416;19.402;2024-03-25T06:38:41;6.71;92.90
63051;SHT30;49136;47.416;19.402;2024-03-25T06:41:06;6.95;92.16
63051;SHT30;49136;47.416;19.402;2024-03-25T06:43:32;6.85;92.14
63051;SHT30;49136;47.416;19.402;2024-03-25T06:45:58;6.65;91.98
63051;SHT30;49136;47.416;19.402;2024-03-25T06:48:23;6.49;92.44
63051;SHT30;49136;47.416;19.402;2024-03-25T06:50:53;6.22;93.59
63051;SHT30;49136;47.416;19.402;2024-03-25T06:53:19;6.47;93.54
63051;SHT30;49136;47.416;19.402;2024-03-25T06:55:59;7.08;92.75
63051;SHT30;49136;47.416;19.402;2024-03-25T06:58:26;7.52;90.59
63051;SHT30;49136;47.416;19.402;2024-03-25T07:00:53;7.85;89.87
63051;SHT30;49136;47.416;19.402;2024-03-25T07:03:20;8.19;88.82
63051;SHT30;49136;47.416;19.402;2024-03-25T07:05:49;8.69;88.36
63051;SHT30;49136;47.416;19.402;2024-03-25T07:08:17;8.91;86.35
63051;SHT30;49136;47.416;19.402;2024-03-25T07:10:44;9.11;86.09
63051;SHT30;49136;47.416;19.402;2024-03-25T07:13:10;9.50;84.96
63051;SHT30;49136;47.416;19.402;2024-03-25T07:15:36;9.83;83.34
63051;SHT30;49136;47.416;19.402;2024-03-25T07:18:02;10.32;81.71
63051;SHT30;49136;47.416;19.402;2024-03-25T07:20:29;10.88;80.02
63051;SHT30;49136;47.416;19.402;2024-03-25T07:22:54;10.57;79.03
63051;SHT30;49136;47.416;19.402;2024-03-25T07:25:25;10.12;80.94
63051;SHT30;49136;47.416;19.402;2024-03-25T07:27:52;9.87;80.39
63051;SHT30;49136;47.416;19.402;2024-03-25T07:30:17;10.49;80.40
63051;SHT30;49136;47.416;19.402;2024-03-25T07:32:43;10.48;78.59
63051;SHT30;49136;47.416;19.402;2024-03-25T07:35:10;10.15;79.45
63051;SHT30;49136;47.416;19.402;2024-03-25T07:37:36;10.24;78.87
63051;SHT30;49136;47.416;19.402;2024-03-25T07:40:02;9.93;78.32
63051;SHT30;49136;47.416;19.402;2024-03-25T07:42:29;9.74;80.52
63051;SHT30;49136;47.416;19.402;2024-03-25T07:44:54;9.64;80.34
63051;SHT30;49136;47.416;19.402;2024-03-25T07:47:19;9.73;80.45
63051;SHT30;49136;47.416;19.402;2024-03-25T07:49:45;9.67;80.70
63051;SHT30;49136;47.416;19.402;2024-03-25T07:52:10;9.52;80.50
63051;SHT30;49136;47.416;19.402;2024-03-25T07:54:36;9.43;79.34
63051;SHT30;49136;47.416;19.402;2024-03-25T07:57:04;9.22;80.08
63051;SHT30;49136;47.416;19.402;2024-03-25T07:59:30;9.32;78.44
63051;SHT30;49136;47.416;19.402;2024-03-25T08:01:55;9.31;78.09
63051;SHT30;49136;47.416;19.402;2024-03-25T08:04:21;9.64;78.82
63051;SHT30;49136;47.416;19.402;2024-03-25T08:06:46;9.76;78.62
63051;SHT30;49136;47.416;19.402;2024-03-25T08:09:12;9.64;78.67
63051;SHT30;49136;47.416;19.402;2024-03-25T08:11:39;9.50;78.81
63051;SHT30;49136;47.416;19.402;2024-03-25T08:14:05;9.48;78.14
63051;SHT30;49136;47.416;19.402;2024-03-25T08:16:30;9.29;79.18
63051;SHT30;49136;47.416;19.402;2024-03-25T08:18:55;9.27;78.90
63051;SHT30;49136;47.416;19.402;2024-03-25T08:21:22;9.36;79.85
63051;SHT30;49136;47.416;19.402;2024-03-25T08:23:48;10.07;77.42
63051;SHT30;49136;47.416;19.402;2024-03-25T08:26:14;10.29;75.60
63051;SHT30;49136;47.416;19.402;2024-03-25T08:28:39;10.53;74.41
63051;SHT30;49136;47.416;19.402;2024-03-25T08:31:05;10.35;75.45
63051;SHT30;49136;47.416;19.402;2024-03-25T08:33:30;10.08;74.31
63051;SHT30;49136;47.416;19.402;2024-03-25T08:35:56;9.97;75.48
63051;SHT30;49136;47.416;19.402;2024-03-25T08:38:22;9.83;75.17
63051;SHT30;49136;47.416;19.402;2024-03-25T08:40:47;10.02;75.47
63051;SHT30;49136;47.416;19.402;2024-03-25T08:43:13;10.18;75.19
63051;SHT30;49136;47.416;19.402;2024-03-25T08:45:38;10.75;74.76
63051;SHT30;49136;47.416;19.402;2024-03-25T08:48:06;11.56;73.14
63051;SHT30;49136;47.416;19.402;2024-03-25T08:50:34;11.08;72.59
63051;SHT30;49136;47.416;19.402;2024-03-25T08:52:59;11.05;71.44
63051;SHT30;49136;47.416;19.402;2024-03-25T08:55:25;11.08;72.53
63051;SHT30;49136;47.416;19.402;2024-03-25T08:57:50;11.37;70.93
63051;SHT30;49136;47.416;19.402;2024-03-25T09:00:17;10.94;70.80
63051;SHT30;49136;47.416;19.402;2024-03-25T09:02:43;11.02;70.62
63051;SHT30;49136;47.416;19.402;2024-03-25T09:05:08;11.47;70.56
63051;SHT30;49136;47.416;19.402;2024-03-25T09:07:35;11.64;68.88
63051;SHT30;49136;47.416;19.402;2024-03-25T09:10:00;12.02;68.95
63051;SHT30;49136;47.416;19.402;2024-03-25T09:12:44;12.06;69.79
63051;SHT30;49136;47.416;19.402;2024-03-25T09:15:10;12.74;68.88
63051;SHT30;49136;47.416;19.402;2024-03-25T09:17:36;13.07;67.59
63051;SHT30;49136;47.416;19.402;2024-03-25T09:20:03;13.13;65.79
63051;SHT30;49136;47.416;19.402;2024-03-25T09:22:44;12.82;65.80
63051;SHT30;49136;47.416;19.402;2024-03-25T09:25:09;12.68;67.06
63051;SHT30;49136;47.416;19.402;2024-03-25T09:27:35;12.37;67.94
63051;SHT30;49136;47.416;19.402;2024-03-25T09:30:01;12.13;68.56
63051;SHT30;49136;47.416;19.402;2024-03-25T09:32:29;12.40;67.70
63051;SHT30;49136;47.416;19.402;2024-03-25T09:34:56;11.56;66.76
63051;SHT30;49136;47.416;19.402;2024-03-25T09:37:21;12.64;68.33
63051;SHT30;49136;47.416;19.402;2024-03-25T09:39:47;13.40;66.46
63051;SHT30;49136;47.416;19.402;2024-03-25T09:42:14;13.71;65.93
63051;SHT30;49136;47.416;19.402;2024-03-25T09:44:41;13.79;64.74
63051;SHT30;49136;47.416;19.402;2024-03-25T09:47:07;14.31;65.26
63051;SHT30;49136;47.416;19.402;2024-03-25T09:49:35;15.06;63.01
63051;SHT30;49136;47.416;19.402;2024-03-25T09:52:01;14.79;61.71
63051;SHT30;49136;47.416;19.402;2024-03-25T09:54:27;13.89;63.27
63051;SHT30;49136;47.416;19.402;2024-03-25T09:56:53;13.20;64.52
63051;SHT30;49136;47.416;19.402;2024-03-25T09:59:20;12.86;66.17
63051;SHT30;49136;47.416;19.402;2024-03-25T10:01:45;12.51;68.73
63051;SHT30;49136;47.416;19.402;2024-03-25T10:04:11;12.29;71.01
63051;SHT30;49136;47.416;19.402;2024-03-25T10:06:39;11.56;71.39
63051;SHT30;49136;47.416;19.402;2024-03-25T10:09:05;11.32;74.78
63051;SHT30;49136;47.416;19.402;2024-03-25T10:11:32;11.15;75.69
63051;SHT30;49136;47.416;19.402;2024-03-25T10:14:01;11.07;75.73
63051;SHT30;49136;47.416;19.402;2024-03-25T10:16:27;10.94;74.77
63051;SHT30;49136;47.416;19.402;2024-03-25T10:18:52;11.05;75.39
63051;SHT30;49136;47.416;19.402;2024-03-25T10:21:21;11.22;74.28
63051;SHT30;49136;47.416;19.402;2024-03-25T10:23:48;11.34;74.16
63051;SHT30;49136;47.416;19.402;2024-03-25T10:26:31;11.44;72.67
63051;SHT30;49136;47.416;19.402;2024-03-25T10:29:05;11.60;72.30
63051;SHT30;49136;47.416;19.402;2024-03-25T10:31:32;11.71;71.68
63051;SHT30;49136;47.416;19.402;2024-03-25T10:33:58;11.86;72.39
63051;SHT30;49136;47.416;19.402;2024-03-25T10:36:24;12.09;73.21
63051;SHT30;49136;47.416;19.402;2024-03-25T10:38:56;12.72;73.11
63051;SHT30;49136;47.416;19.402;2024-03-25T10:41:22;13.20;72.13
63051;SHT30;49136;47.416;19.402;2024-03-25T10:43:49;13.41;69.20
63051;SHT30;49136;47.416;19.402;2024-03-25T10:46:22;13.58;70.89
63051;SHT30;49136;47.416;19.402;2024-03-25T10:48:54;14.03;68.01
63051;SHT30;49136;47.416;19.402;2024-03-25T10:51:22;13.97;67.80
63051;SHT30;49136;47.416;19.402;2024-03-25T10:53:53;14.18;68.91
63051;SHT30;49136;47.416;19.402;2024-03-25T10:56:22;14.10;68.90
63051;SHT30;49136;47.416;19.402;2024-03-25T10:58:49;15.10;67.27
63051;SHT30;49136;47.416;19.402;2024-03-25T11:01:17;15.06;59.21
63051;SHT30;49136;47.416;19.402;2024-03-25T11:03:43;14.02;59.49
63051;SHT30;49136;47.416;19.402;2024-03-25T11:06:09;14.64;60.27
63051;SHT30;49136;47.416;19.402;2024-03-25T11:08:36;15.62;59.77
63051;SHT30;49136;47.416;19.402;2024-03-25T11:11:01;16.33;57.83
63051;SHT30;49136;47.416;19.402;2024-03-25T11:13:27;15.87;57.10
63051;SHT30;49136;47.416;19.402;2024-03-25T11:15:54;15.41;58.59
63051;SHT30;49136;47.416;19.402;2024-03-25T11:18:22;14.54;56.63
63051;SHT30;49136;47.416;19.402;2024-03-25T11:21:04;13.87;59.11
63051;SHT30;49136;47.416;19.402;2024-03-25T11:24:05;13.86;61.64
63051;SHT30;49136;47.416;19.402;2024-03-25T11:26:31;13.90;61.43
63051;SHT30;49136;47.416;19.402;2024-03-25T11:29:00;13.89;60.41
63051;SHT30;49136;47.416;19.402;2024-03-25T11:31:26;13.73;60.92
63051;SHT30;49136;47.416;19.402;2024-03-25T11:33:55;14.24;60.07
63051;SHT30;49136;47.416;19.402;2024-03-25T11:36:22;14.41;59.86
63051;SHT30;49136;47.416;19.402;2024-03-25T11:39:06;15.59;60.00
63051;SHT30;49136;47.416;19.402;2024-03-25T11:41:43;14.91;56.11
63051;SHT30;49136;47.416;19.402;2024-03-25T11:44:11;14.91;57.48
63051;SHT30;49136;47.416;19.402;2024-03-25T11:46:38;12.60;58.93
63051;SHT30;49136;47.416;19.402;2024-03-25T11:49:11;11.53;63.12
63051;SHT30;49136;47.416;19.402;2024-03-25T11:51:37;11.43;63.95
63051;SHT30;49136;47.416;19.402;2024-03-25T11:54:06;10.63;66.26
63051;SHT30;49136;47.416;19.402;2024-03-25T11:56:31;10.43;68.97
63051;SHT30;49136;47.416;19.402;2024-03-25T11:58:58;10.14;71.70
63051;SHT30;49136;47.416;19.402;2024-03-25T12:01:24;10.21;71.34
63051;SHT30;49136;47.416;19.402;2024-03-25T12:03:50;10.74;73.10
63051;SHT30;49136;47.416;19.402;2024-03-25T12:06:16;11.14;69.76
63051;SHT30;49136;47.416;19.402;2024-03-25T12:08:41;12.15;68.74
63051;SHT30;49136;47.416;19.402;2024-03-25T12:11:26;12.41;68.09
63051;SHT30;49136;47.416;19.402;2024-03-25T12:13:52;12.38;67.10
63051;SHT30;49136;47.416;19.402;2024-03-25T12:16:17;12.86;66.13
63051;SHT30;49136;47.416;19.402;2024-03-25T12:18:43;12.61;66.32
63051;SHT30;49136;47.416;19.402;2024-03-25T12:21:11;12.34;65.16
63051;SHT30;49136;47.416;19.402;2024-03-25T12:23:36;11.88;64.65
63051;SHT30;49136;47.416;19.402;2024-03-25T12:26:03;11.86;66.19
63051;SHT30;49136;47.416;19.402;2024-03-25T12:28:34;11.95;66.09
63051;SHT30;49136;47.416;19.402;2024-03-25T12:31:07;12.29;64.47
63051;SHT30;49136;47.416;19.402;2024-03-25T12:33:40;13.03;63.34
63051;SHT30;49136;47.416;19.402;2024-03-25T12:36:06;13.76;64.62
63051;SHT30;49136;47.416;19.402;2024-03-25T12:38:31;14.17;60.46
63051;SHT30;49136;47.416;19.402;2024-03-25T12:41:08;14.07;60.10
63051;SHT30;49136;47.416;19.402;2024-03-25T12:43:35;14.32;61.42
63051;SHT30;49136;47.416;19.402;2024-03-25T12:46:01;14.13;60.16
63051;SHT30;49136;47.416;19.402;2024-03-25T12:48:28;13.86;58.71
63051;SHT30;49136;47.416;19.402;2024-03-25T12:50:53;12.72;59.46
63051;SHT30;49136;47.416;19.402;2024-03-25T12:53:19;12.26;62.11
63051;SHT30;49136;47.416;19.402;2024-03-25T12:55:48;12.22;64.20
63051;SHT30;49136;47.416;19.402;2024-03-25T12:58:14;11.84;66.83
63051;SHT30;49136;47.416;19.402;2024-03-25T13:00:39;11.54;71.20
63051;SHT30;49136;47.416;19.402;2024-03-25T13:03:07;11.05;75.66
63051;SHT30;49136;47.416;19.402;2024-03-25T13:05:33;10.85;77.75
63051;SHT30;49136;47.416;19.402;2024-03-25T13:07:59;11.07;78.09
63051;SHT30;49136;47.416;19.402;2024-03-25T13:10:24;11.25;77.24
63051;SHT30;49136;47.416;19.402;2024-03-25T13:12:50;11.32;77.32
63051;SHT30;49136;47.416;19.402;2024-03-25T13:15:16;11.36;76.54
63051;SHT30;49136;47.416;19.402;2024-03-25T13:17:41;12.08;74.96
63051;SHT30;49136;47.416;19.402;2024-03-25T13:20:07;12.65;73.16
63051;SHT30;49136;47.416;19.402;2024-03-25T13:22:33;12.89;71.39
63051;SHT30;49136;47.416;19.402;2024-03-25T13:24:59;13.36;72.02
63051;SHT30;49136;47.416;19.402;2024-03-25T13:27:27;13.61;70.31
63051;SHT30;49136;47.416;19.402;2024-03-25T13:29:53;14.16;70.16
63051;SHT30;49136;47.416;19.402;2024-03-25T13:32:20;14.56;68.23
63051;SHT30;49136;47.416;19.402;2024-03-25T13:34:45;14.30;66.61
63051;SHT30;49136;47.416;19.402;2024-03-25T13:37:11;14.14;66.83
63051;SHT30;49136;47.416;19.402;2024-03-25T13:39:37;14.30;66.76
63051;SHT30;49136;47.416;19.402;2024-03-25T13:42:02;14.18;66.46
63051;SHT30;49136;47.416;19.402;2024-03-25T13:44:28;14.37;66.38
63051;SHT30;49136;47.416;19.402;2024-03-25T13:46:54;14.13;66.69
63051;SHT30;49136;47.416;19.402;2024-03-25T13:49:19;13.06;64.68
63051;SHT30;49136;47.416;19.402;2024-03-25T13:51:45;13.26;64.64
63051;SHT30;49136;47.416;19.402;2024-03-25T13:54:11;13.24;65.67
63051;SHT30;49136;47.416;19.402;2024-03-25T13:56:37;13.13;65.48
63051;SHT30;49136;47.416;19.402;2024-03-25T13:59:03;13.17;64.74
63051;SHT30;49136;47.416;19.402;2024-03-25T14:01:31;13.36;65.30
63051;SHT30;49136;47.416;19.402;2024-03-25T14:03:56;13.43;64.76
63051;SHT30;49136;47.416;19.402;2024-03-25T14:06:22;13.27;64.83
63051;SHT30;49136;47.416;19.402;2024-03-25T14:08:47;13.37;63.74
63051;SHT30;49136;47.416;19.402;2024-03-25T14:11:13;13.64;65.27
63051;SHT30;49136;47.416;19.402;2024-03-25T14:13:38;13.55;65.09
63051;SHT30;49136;47.416;19.402;2024-03-25T14:16:04;13.73;64.28
63051;SHT30;49136;47.416;19.402;2024-03-25T14:18:29;13.41;61.16
63051;SHT30;49136;47.416;19.402;2024-03-25T14:20:56;13.43;63.03
63051;SHT30;49136;47.416;19.402;2024-03-25T14:23:22;12.93;62.60
63051;SHT30;49136;47.416;19.402;2024-03-25T14:25:48;12.79;63.93
63051;SHT30;49136;47.416;19.402;2024-03-25T14:28:13;12.77;63.76
63051;SHT30;49136;47.416;19.402;2024-03-25T14:30:39;12.37;64.80
63051;SHT30;49136;47.416;19.402;2024-03-25T14:33:04;12.05;65.19
63051;SHT30;49136;47.416;19.402;2024-03-25T14:35:30;12.34;65.73
63051;SHT30;49136;47.416;19.402;2024-03-25T14:37:55;12.33;64.64
63051;SHT30;49136;47.416;19.402;2024-03-25T14:40:21;12.41;63.86
63051;SHT30;49136;47.416;19.402;2024-03-25T14:42:46;12.20;62.94
63051;SHT30;49136;47.416;19.402;2024-03-25T14:45:14;11.86;62.71
63051;SHT30;49136;47.416;19.402;2024-03-25T14:47:39;11.81;63.17
63051;SHT30;49136;47.416;19.402;2024-03-25T14:50:05;11.67;64.17
63051;SHT30;49136;47.416;19.402;2024-03-25T14:52:31;11.30;63.22
63051;SHT30;49136;47.416;19.402;2024-03-25T14:54:56;11.11;63.99
63051;SHT30;49136;47.416;19.402;2024-03-25T14:57:22;10.99;63.90
63051;SHT30;49136;47.416;19.402;2024-03-25T14:59:47;11.30;63.84
63051;SHT30;49136;47.416;19.402;2024-03-25T15:02:13;11.43;63.85
63051;SHT30;49136;47.416;19.402;2024-03-25T15:04:41;11.44;63.42
63051;SHT30;49136;47.416;19.402;2024-03-25T15:07:10;11.66;64.93
63051;SHT30;49136;47.416;19.402;2024-03-25T15:09:36;11.57;62.38
63051;SHT30;49136;47.416;19.402;2024-03-25T15:12:01;11.66;64.27
63051;SHT30;49136;47.416;19.402;2024-03-25T15:14:30;11.57;62.40
63051;SHT30;49136;47.416;19.402;2024-03-25T15:16:59;11.64;62.59
63051;SHT30;49136;47.416;19.402;2024-03-25T15:19:25;11.67;62.93